sensor_id;sensor_type;location;lat;lon;timestamp;pressure;altitude;pressure_sealevel;temperature
71630;BMP280;59479;51.902;8.212;2023-11-22T00:02:16;102020.00;;;8.22
71630;BMP280;59479;51.902;8.212;2023-11-22T00:04:42;102016.63;;;8.20
71630;BMP280;59479;51.902;8.212;2023-11-22T00:07:07;102019.88;;;8.17
71630;BMP280;59479;51.902;8.212;2023-11-22T00:09:32;102025.84;;;8.21
71630;BMP280;59479;51.902;8.212;2023-11-22T00:11:58;102028.25;;;8.18
71630;BMP280;59479;51.902;8.212;2023-11-22T00:14:25;102029.84;;;8.16
71630;BMP280;59479;51.902;8.212;2023-11-22T00:16:51;102035.56;;;8.12
71630;BMP280;59479;51.902;8.212;2023-11-22T00:19:16;102042.28;;;8.13
71630;BMP280;59479;51.902;8.212;2023-11-22T00:21:47;102044.84;;;8.14
71630;BMP280;59479;51.902;8.212;2023-11-22T00:24:12;102047.91;;;8.07
71630;BMP280;59479;51.902;8.212;2023-11-22T00:26:38;102041.09;;;8.03
71630;BMP280;59479;51.902;8.212;2023-11-22T00:29:03;102046.75;;;7.98
71630;BMP280;59479;51.902;8.212;2023-11-22T00:31:28;102036.03;;;8.02
71630;BMP280;59479;51.902;8.212;2023-11-22T00:33:54;102049.22;;;7.96
71630;BMP280;59479;51.902;8.212;2023-11-22T00:36:20;102043.09;;;7.89
71630;BMP280;59479;51.902;8.212;2023-11-22T00:38:45;102051.38;;;7.86
71630;BMP280;59479;51.902;8.212;2023-11-22T00:41:10;102050.53;;;7.86
71630;BMP280;59479;51.902;8.212;2023-11-22T00:43:36;102074.78;;;7.88
71630;BMP280;59479;51.902;8.212;2023-11-22T00:46:02;102083.69;;;7.80
71630;BMP280;59479;51.902;8.212;2023-11-22T00:48:27;102093.88;;;7.85
71630;BMP280;59479;51.902;8.212;2023-11-22T00:50:53;102097.03;;;7.79
71630;BMP280;59479;51.902;8.212;2023-11-22T00:53:18;102081.59;;;7.67
71630;BMP280;59479;51.902;8.212;2023-11-22T00:55:43;102084.19;;;7.70
71630;BMP280;59479;51.902;8.212;2023-11-22T00:58:09;102096.03;;;7.74
71630;BMP280;59479;51.902;8.212;2023-11-22T01:00:35;102087.50;;;7.69
71630;BMP280;59479;51.902;8.212;2023-11-22T01:03:00;102084.78;;;7.63
71630;BMP280;59479;51.902;8.212;2023-11-22T01:05:25;102100.75;;;7.67
71630;BMP280;59479;51.902;8.212;2023-11-22T01:07:51;102112.31;;;7.63
71630;BMP280;59479;51.902;8.212;2023-11-22T01:10:16;102097.28;;;7.63
71630;BMP280;59479;51.902;8.212;2023-11-22T01:12:41;102098.94;;;7.63
71630;BMP280;59479;51.902;8.212;2023-11-22T01:15:07;102083.66;;;7.55
71630;BMP280;59479;51.902;8.212;2023-11-22T01:17:33;102088.63;;;7.54
71630;BMP280;59479;51.902;8.212;2023-11-22T01:19:59;102097.88;;;7.56
71630;BMP280;59479;51.902;8.212;2023-11-22T01:22:25;102105.38;;;7.56
71630;BMP280;59479;51.902;8.212;2023-11-22T01:24:50;102094.53;;;7.56
71630;BMP280;59479;51.902;8.212;2023-11-22T01:27:15;102079.19;;;7.47
71630;BMP280;59479;51.902;8.212;2023-11-22T01:29:41;102096.03;;;7.51
71630;BMP280;59479;51.902;8.212;2023-11-22T01:32:07;102086.03;;;7.51
71630;BMP280;59479;51.902;8.212;2023-11-22T01:34:34;102099.38;;;7.52
71630;BMP280;59479;51.902;8.212;2023-11-22T01:37:00;102106.03;;;7.51
71630;BMP280;59479;51.902;8.212;2023-11-22T01:39:25;102099.97;;;7.45
71630;BMP280;59479;51.902;8.212;2023-11-22T01:41:52;102102.56;;;7.48
71630;BMP280;59479;51.902;8.212;2023-11-22T01:44:17;102096.50;;;7.41
71630;BMP280;59479;51.902;8.212;2023-11-22T01:46:43;102083.88;;;7.38
71630;BMP280;59479;51.902;8.212;2023-11-22T01:49:10;102088.28;;;7.45
71630;BMP280;59479;51.902;8.212;2023-11-22T01:51:37;102100.69;;;7.42
71630;BMP280;59479;51.902;8.212;2023-11-22T01:54:03;102099.00;;;7.41
71630;BMP280;59479;51.902;8.212;2023-11-22T01:56:30;102108.06;;;7.38
71630;BMP280;59479;51.902;8.212;2023-11-22T01:58:57;102114.53;;;7.33
71630;BMP280;59479;51.902;8.212;2023-11-22T02:01:26;102115.25;;;7.30
71630;BMP280;59479;51.902;8.212;2023-11-22T02:03:52;102105.00;;;7.23
71630;BMP280;59479;51.902;8.212;2023-11-22T02:06:19;102107.31;;;7.18
71630;BMP280;59479;51.902;8.212;2023-11-22T02:08:46;102119.81;;;7.18
71630;BMP280;59479;51.902;8.212;2023-11-22T02:11:12;102127.84;;;7.10
71630;BMP280;59479;51.902;8.212;2023-11-22T02:13:38;102125.34;;;7.10
71630;BMP280;59479;51.902;8.212;2023-11-22T02:16:03;102131.81;;;7.05
71630;BMP280;59479;51.902;8.212;2023-11-22T02:18:29;102140.91;;;7.03
71630;BMP280;59479;51.902;8.212;2023-11-22T02:20:55;102138.22;;;6.99
71630;BMP280;59479;51.902;8.212;2023-11-22T02:23:20;102135.59;;;6.94
71630;BMP280;59479;51.902;8.212;2023-11-22T02:25:47;102153.13;;;6.96
71630;BMP280;59479;51.902;8.212;2023-11-22T02:28:12;102153.66;;;6.89
71630;BMP280;59479;51.902;8.212;2023-11-22T02:30:37;102158.56;;;6.86
71630;BMP280;59479;51.902;8.212;2023-11-22T02:33:03;102151.59;;;6.77
71630;BMP280;59479;51.902;8.212;2023-11-22T02:35:30;102180.75;;;6.78
71630;BMP280;59479;51.902;8.212;2023-11-22T02:37:57;102175.56;;;6.74
71630;BMP280;59479;51.902;8.212;2023-11-22T02:40:22;102189.97;;;6.79
71630;BMP280;59479;51.902;8.212;2023-11-22T02:42:49;102175.47;;;6.71
71630;BMP280;59479;51.902;8.212;2023-11-22T02:45:15;102186.25;;;6.70
71630;BMP280;59479;51.902;8.212;2023-11-22T02:47:41;102193.03;;;6.72
71630;BMP280;59479;51.902;8.212;2023-11-22T02:50:06;102181.88;;;6.65
71630;BMP280;59479;51.902;8.212;2023-11-22T02:52:32;102175.91;;;6.61
71630;BMP280;59479;51.902;8.212;2023-11-22T02:54:58;102163.09;;;6.54
71630;BMP280;59479;51.902;8.212;2023-11-22T02:57:24;102182.28;;;6.55
71630;BMP280;59479;51.902;8.212;2023-11-22T02:59:49;102172.25;;;6.53
71630;BMP280;59479;51.902;8.212;2023-11-22T03:02:14;102169.31;;;6.43
71630;BMP280;59479;51.902;8.212;2023-11-22T03:04:42;102165.44;;;6.30
71630;BMP280;59479;51.902;8.212;2023-11-22T03:07:08;102189.88;;;6.37
71630;BMP280;59479;51.902;8.212;2023-11-22T03:09:34;102180.63;;;6.35
71630;BMP280;59479;51.902;8.212;2023-11-22T03:11:59;102202.44;;;6.39
71630;BMP280;59479;51.902;8.212;2023-11-22T03:14:25;102201.53;;;6.37
71630;BMP280;59479;51.902;8.212;2023-11-22T03:16:50;102208.88;;;6.34
71630;BMP280;59479;51.902;8.212;2023-11-22T03:19:16;102206.06;;;6.27
71630;BMP280;59479;51.902;8.212;2023-11-22T03:21:41;102201.69;;;6.21
71630;BMP280;59479;51.902;8.212;2023-11-22T03:24:09;102196.56;;;6.18
71630;BMP280;59479;51.902;8.212;2023-11-22T03:26:35;102202.75;;;6.26
71630;BMP280;59479;51.902;8.212;2023-11-22T03:29:00;102189.38;;;6.26
71630;BMP280;59479;51.902;8.212;2023-11-22T03:31:27;102192.69;;;6.25
71630;BMP280;59479;51.902;8.212;2023-11-22T03:33:53;102203.38;;;6.22
71630;BMP280;59479;51.902;8.212;2023-11-22T03:36:20;102187.28;;;6.16
71630;BMP280;59479;51.902;8.212;2023-11-22T03:38:45;102192.88;;;6.10
71630;BMP280;59479;51.902;8.212;2023-11-22T03:41:10;102192.25;;;6.14
71630;BMP280;59479;51.902;8.212;2023-11-22T03:43:36;102209.88;;;6.19
71630;BMP280;59479;51.902;8.212;2023-11-22T03:46:02;102214.56;;;6.11
71630;BMP280;59479;51.902;8.212;2023-11-22T03:48:27;102215.56;;;6.15
71630;BMP280;59479;51.902;8.212;2023-11-22T03:50:53;102213.59;;;6.08
71630;BMP280;59479;51.902;8.212;2023-11-22T03:53:19;102230.53;;;6.15
71630;BMP280;59479;51.902;8.212;2023-11-22T03:55:47;102230.66;;;6.18
71630;BMP280;59479;51.902;8.212;2023-11-22T03:58:12;102228.22;;;6.19
71630;BMP280;59479;51.902;8.212;2023-11-22T04:00:38;102223.88;;;6.15
71630;BMP280;59479;51.902;8.212;2023-11-22T04:03:03;102239.78;;;6.17
71630;BMP280;59479;51.902;8.212;2023-11-22T04:05:28;102257.41;;;6.20
71630;BMP280;59479;51.902;8.212;2023-11-22T04:07:54;102243.88;;;6.15
71630;BMP280;59479;51.902;8.212;2023-11-22T04:10:21;102241.38;;;6.15
71630;BMP280;59479;51.902;8.212;2023-11-22T04:12:47;102261.63;;;6.21
71630;BMP280;59479;51.902;8.212;2023-11-22T04:15:13;102269.09;;;6.21
71630;BMP280;59479;51.902;8.212;2023-11-22T04:17:39;102275.53;;;6.16
71630;BMP280;59479;51.902;8.212;2023-11-22T04:20:06;102274.50;;;6.11
71630;BMP280;59479;51.902;8.212;2023-11-22T04:22:35;102278.56;;;6.09
71630;BMP280;59479;51.902;8.212;2023-11-22T04:25:00;102280.13;;;6.07
71630;BMP280;59479;51.902;8.212;2023-11-22T04:27:27;102276.00;;;6.08
71630;BMP280;59479;51.902;8.212;2023-11-22T04:29:52;102274.34;;;6.08
71630;BMP280;59479;51.902;8.212;2023-11-22T04:32:18;102270.81;;;6.03
71630;BMP280;59479;51.902;8.212;2023-11-22T04:34:43;102265.66;;;6.00
71630;BMP280;59479;51.902;8.212;2023-11-22T04:37:08;102269.53;;;5.94
71630;BMP280;59479;51.902;8.212;2023-11-22T04:39:34;102276.25;;;5.95
71630;BMP280;59479;51.902;8.212;2023-11-22T04:41:59;102273.81;;;5.96
71630;BMP280;59479;51.902;8.212;2023-11-22T04:44:24;102278.59;;;5.92
71630;BMP280;59479;51.902;8.212;2023-11-22T04:46:50;102280.19;;;5.90
71630;BMP280;59479;51.902;8.212;2023-11-22T04:49:15;102269.88;;;5.83
71630;BMP280;59479;51.902;8.212;2023-11-22T04:51:40;102272.31;;;5.81
71630;BMP280;59479;51.902;8.212;2023-11-22T04:54:08;102272.84;;;5.76
71630;BMP280;59479;51.902;8.212;2023-11-22T04:56:33;102279.25;;;5.71
71630;BMP280;59479;51.902;8.212;2023-11-22T04:58:59;102270.06;;;5.70
71630;BMP280;59479;51.902;8.212;2023-11-22T05:01:24;102268.34;;;5.69
71630;BMP280;59479;51.902;8.212;2023-11-22T05:03:50;102276.72;;;5.69
71630;BMP280;59479;51.902;8.212;2023-11-22T05:06:16;102274.84;;;5.65
71630;BMP280;59479;51.902;8.212;2023-11-22T05:08:42;102276.34;;;5.62
71630;BMP280;59479;51.902;8.212;2023-11-22T05:11:07;102287.38;;;5.67
71630;BMP280;59479;51.902;8.212;2023-11-22T05:13:36;102284.06;;;5.66
71630;BMP280;59479;51.902;8.212;2023-11-22T05:16:01;102270.28;;;5.57
71630;BMP280;59479;51.902;8.212;2023-11-22T05:18:26;102277.09;;;5.59
71630;BMP280;59479;51.902;8.212;2023-11-22T05:20:52;102288.53;;;5.56
71630;BMP280;59479;51.902;8.212;2023-11-22T05:23:17;102301.00;;;5.56
71630;BMP280;59479;51.902;8.212;2023-11-22T05:25:43;102301.81;;;5.55
71630;BMP280;59479;51.902;8.212;2023-11-22T05:28:09;102313.34;;;5.53
71630;BMP280;59479;51.902;8.212;2023-11-22T05:30:36;102319.69;;;5.46
71630;BMP280;59479;51.902;8.212;2023-11-22T05:33:02;102320.31;;;5.42
71630;BMP280;59479;51.902;8.212;2023-11-22T05:35:27;102318.53;;;5.40
71630;BMP280;59479;51.902;8.212;2023-11-22T05:37:53;102341.13;;;5.43
71630;BMP280;59479;51.902;8.212;2023-11-22T05:40:18;102323.31;;;5.36
71630;BMP280;59479;51.902;8.212;2023-11-22T05:42:44;102320.75;;;5.34
71630;BMP280;59479;51.902;8.212;2023-11-22T05:45:13;102324.72;;;5.31
71630;BMP280;59479;51.902;8.212;2023-11-22T05:47:38;102338.19;;;5.34
71630;BMP280;59479;51.902;8.212;2023-11-22T05:50:05;102335.50;;;5.30
71630;BMP280;59479;51.902;8.212;2023-11-22T05:52:30;102316.09;;;5.24
71630;BMP280;59479;51.902;8.212;2023-11-22T05:54:56;102314.41;;;5.23
71630;BMP280;59479;51.902;8.212;2023-11-22T05:57:21;102311.84;;;5.22
71630;BMP280;59479;51.902;8.212;2023-11-22T05:59:47;102308.44;;;5.20
71630;BMP280;59479;51.902;8.212;2023-11-22T06:02:12;102310.84;;;5.18
71630;BMP280;59479;51.902;8.212;2023-11-22T06:04:43;102307.28;;;5.13
71630;BMP280;59479;51.902;8.212;2023-11-22T06:07:09;102321.50;;;5.16
71630;BMP280;59479;51.902;8.212;2023-11-22T06:09:34;102310.41;;;5.09
71630;BMP280;59479;51.902;8.212;2023-11-22T06:12:04;102298.41;;;5.02
71630;BMP280;59479;51.902;8.212;2023-11-22T06:14:33;102320.31;;;5.08
71630;BMP280;59479;51.902;8.212;2023-11-22T06:16:58;102329.34;;;5.06
71630;BMP280;59479;51.902;8.212;2023-11-22T06:19:23;102329.75;;;4.98
71630;BMP280;59479;51.902;8.212;2023-11-22T06:21:48;102324.72;;;4.96
71630;BMP280;59479;51.902;8.212;2023-11-22T06:24:16;102313.66;;;4.91
71630;BMP280;59479;51.902;8.212;2023-11-22T06:26:43;102331.94;;;4.92
71630;BMP280;59479;51.902;8.212;2023-11-22T06:29:08;102346.66;;;5.03
71630;BMP280;59479;51.902;8.212;2023-11-22T06:31:37;102337.16;;;4.96
71630;BMP280;59479;51.902;8.212;2023-11-22T06:34:02;102356.53;;;5.01
71630;BMP280;59479;51.902;8.212;2023-11-22T06:36:27;102335.22;;;4.91
71630;BMP280;59479;51.902;8.212;2023-11-22T06:38:54;102336.94;;;4.92
71630;BMP280;59479;51.902;8.212;2023-11-22T06:41:19;102321.53;;;4.83
71630;BMP280;59479;51.902;8.212;2023-11-22T06:43:47;102339.09;;;4.86
71630;BMP280;59479;51.902;8.212;2023-11-22T06:46:12;102336.00;;;4.90
71630;BMP280;59479;51.902;8.212;2023-11-22T06:48:38;102320.81;;;4.85
71630;BMP280;59479;51.902;8.212;2023-11-22T06:51:03;102324.81;;;4.82
71630;BMP280;59479;51.902;8.212;2023-11-22T06:53:28;102328.22;;;4.84
71630;BMP280;59479;51.902;8.212;2023-11-22T06:55:57;102320.59;;;4.81
71630;BMP280;59479;51.902;8.212;2023-11-22T06:58:22;102333.13;;;4.82
71630;BMP280;59479;51.902;8.212;2023-11-22T07:00:48;102315.47;;;4.78
71630;BMP280;59479;51.902;8.212;2023-11-22T07:03:40;102312.03;;;4.76
71630;BMP280;59479;51.902;8.212;2023-11-22T07:10:52;102321.63;;;4.68
71630;BMP280;59479;51.902;8.212;2023-11-22T07:13:23;102323.13;;;4.65
71630;BMP280;59479;51.902;8.212;2023-11-22T07:15:50;102341.63;;;4.70
71630;BMP280;59479;51.902;8.212;2023-11-22T07:18:18;102339.91;;;4.69
71630;BMP280;59479;51.902;8.212;2023-11-22T07:20:46;102346.69;;;4.71
71630;BMP280;59479;51.902;8.212;2023-11-22T07:23:16;102349.66;;;4.64
71630;BMP280;59479;51.902;8.212;2023-11-22T07:25:41;102362.81;;;4.62
71630;BMP280;59479;51.902;8.212;2023-11-22T07:28:10;102381.31;;;4.67
71630;BMP280;59479;51.902;8.212;2023-11-22T07:30:36;102360.78;;;4.55
71630;BMP280;59479;51.902;8.212;2023-11-22T07:33:10;102383.38;;;4.58
71630;BMP280;59479;51.902;8.212;2023-11-22T07:35:44;102366.84;;;4.60
71630;BMP280;59479;51.902;8.212;2023-11-22T07:38:23;102376.97;;;4.63
71630;BMP280;59479;51.902;8.212;2023-11-22T07:40:49;102378.59;;;4.62
71630;BMP280;59479;51.902;8.212;2023-11-22T07:43:16;102371.69;;;4.57
71630;BMP280;59479;51.902;8.212;2023-11-22T07:45:42;102360.78;;;4.55
71630;BMP280;59479;51.902;8.212;2023-11-22T07:48:10;102379.31;;;4.60
71630;BMP280;59479;51.902;8.212;2023-11-22T07:50:39;102380.25;;;4.62
71630;BMP280;59479;51.902;8.212;2023-11-22T07:53:14;102381.97;;;4.63
71630;BMP280;59479;51.902;8.212;2023-11-22T07:55:40;102391.47;;;4.70
71630;BMP280;59479;51.902;8.212;2023-11-22T07:58:10;102385.38;;;4.65
71630;BMP280;59479;51.902;8.212;2023-11-22T08:00:38;102375.00;;;4.57
71630;BMP280;59479;51.902;8.212;2023-11-22T08:03:07;102390.38;;;4.65
71630;BMP280;59479;51.902;8.212;2023-11-22T08:05:32;102377.81;;;4.63
71630;BMP280;59479;51.902;8.212;2023-11-22T08:08:05;102372.00;;;4.63
71630;BMP280;59479;51.902;8.212;2023-11-22T08:10:36;102374.19;;;4.73
71630;BMP280;59479;51.902;8.212;2023-11-22T08:13:02;102353.84;;;4.65
71630;BMP280;59479;51.902;8.212;2023-11-22T08:15:29;102369.13;;;4.71
71630;BMP280;59479;51.902;8.212;2023-11-22T08:18:06;102380.00;;;4.73
71630;BMP280;59479;51.902;8.212;2023-11-22T08:20:37;102373.47;;;4.75
71630;BMP280;59479;51.902;8.212;2023-11-22T08:23:03;102374.19;;;4.73
71630;BMP280;59479;51.902;8.212;2023-11-22T08:25:36;102381.78;;;4.76
71630;BMP280;59479;51.902;8.212;2023-11-22T08:28:04;102376.66;;;4.73
71630;BMP280;59479;51.902;8.212;2023-11-22T08:30:33;102395.81;;;4.74
71630;BMP280;59479;51.902;8.212;2023-11-22T08:33:01;102393.38;;;4.75
71630;BMP280;59479;51.902;8.212;2023-11-22T08:35:27;102406.25;;;4.83
71630;BMP280;59479;51.902;8.212;2023-11-22T08:37:53;102395.81;;;4.74
71630;BMP280;59479;51.902;8.212;2023-11-22T08:40:24;102397.81;;;4.81
71630;BMP280;59479;51.902;8.212;2023-11-22T08:42:54;102414.81;;;4.88
71630;BMP280;59479;51.902;8.212;2023-11-22T08:45:23;102410.75;;;4.90
71630;BMP280;59479;51.902;8.212;2023-11-22T08:47:58;102420.72;;;4.90
71630;BMP280;59479;51.902;8.212;2023-11-22T08:50:52;102423.22;;;4.90
71630;BMP280;59479;51.902;8.212;2023-11-22T08:57:05;102465.94;;;4.97
71630;BMP280;59479;51.902;8.212;2023-11-22T09:37:27;102438.38;;;5.10
71630;BMP280;59479;51.902;8.212;2023-11-22T09:39:58;102425.13;;;5.11
71630;BMP280;59479;51.902;8.212;2023-11-22T09:42:23;102418.50;;;5.11
71630;BMP280;59479;51.902;8.212;2023-11-22T09:44:49;102427.06;;;5.16
71630;BMP280;59479;51.902;8.212;2023-11-22T09:47:17;102424.03;;;5.22
71630;BMP280;59479;51.902;8.212;2023-11-22T09:49:49;102414.13;;;5.23
71630;BMP280;59479;51.902;8.212;2023-11-22T09:52:20;102414.28;;;5.26
71630;BMP280;59479;51.902;8.212;2023-11-22T09:54:48;102419.34;;;5.28
71630;BMP280;59479;51.902;8.212;2023-11-22T09:57:17;102440.41;;;5.34
71630;BMP280;59479;51.902;8.212;2023-11-22T09:59:44;102447.28;;;5.38
71630;BMP280;59479;51.902;8.212;2023-11-22T10:02:10;102442.38;;;5.40
71630;BMP280;59479;51.902;8.212;2023-11-22T10:04:35;102425.78;;;5.40
71630;BMP280;59479;51.902;8.212;2023-11-22T10:07:02;102424.84;;;5.38
71630;BMP280;59479;51.902;8.212;2023-11-22T10:09:27;102410.81;;;5.40
71630;BMP280;59479;51.902;8.212;2023-11-22T10:11:58;102423.50;;;5.44
71630;BMP280;59479;51.902;8.212;2023-11-22T10:14:25;102419.53;;;5.48
71630;BMP280;59479;51.902;8.212;2023-11-22T10:17:00;102412.97;;;5.50
71630;BMP280;59479;51.902;8.212;2023-11-22T10:19:26;102408.91;;;5.52
71630;BMP280;59479;51.902;8.212;2023-11-22T10:22:02;102421.22;;;5.49
71630;BMP280;59479;51.902;8.212;2023-11-22T10:24:31;102412.31;;;5.54
71630;BMP280;59479;51.902;8.212;2023-11-22T10:26:58;102413.31;;;5.57
71630;BMP280;59479;51.902;8.212;2023-11-22T10:29:27;102410.13;;;5.60
71630;BMP280;59479;51.902;8.212;2023-11-22T10:31:53;102419.09;;;5.56
71630;BMP280;59479;51.902;8.212;2023-11-22T10:34:19;102419.31;;;5.61
71630;BMP280;59479;51.902;8.212;2023-11-22T10:36:46;102432.09;;;5.67
71630;BMP280;59479;51.902;8.212;2023-11-22T10:39:12;102407.06;;;5.65
71630;BMP280;59479;51.902;8.212;2023-11-22T10:41:42;102410.56;;;5.69
71630;BMP280;59479;51.902;8.212;2023-11-22T10:44:09;102418.19;;;5.72
71630;BMP280;59479;51.902;8.212;2023-11-22T10:46:35;102410.56;;;5.69
71630;BMP280;59479;51.902;8.212;2023-11-22T10:49:02;102413.97;;;5.71
71630;BMP280;59479;51.902;8.212;2023-11-22T10:51:31;102405.72;;;5.72
71630;BMP280;59479;51.902;8.212;2023-11-22T10:53:57;102409.94;;;5.73
71630;BMP280;59479;51.902;8.212;2023-11-22T10:56:23;102396.69;;;5.74
71630;BMP280;59479;51.902;8.212;2023-11-22T10:58:59;102404.25;;;5.75
71630;BMP280;59479;51.902;8.212;2023-11-22T11:01:27;102392.06;;;5.81
71630;BMP280;59479;51.902;8.212;2023-11-22T11:04:01;102397.25;;;5.85
71630;BMP280;59479;51.902;8.212;2023-11-22T11:06:31;102399.91;;;5.88
71630;BMP280;59479;51.902;8.212;2023-11-22T11:09:08;102394.06;;;5.88
71630;BMP280;59479;51.902;8.212;2023-11-22T11:11:35;102399.25;;;5.92
71630;BMP280;59479;51.902;8.212;2023-11-22T11:14:02;102396.75;;;5.92
71630;BMP280;59479;51.902;8.212;2023-11-22T11:16:30;102394.25;;;5.92
71630;BMP280;59479;51.902;8.212;2023-11-22T11:18:57;102390.31;;;5.97
71630;BMP280;59479;51.902;8.212;2023-11-22T11:21:22;102382.66;;;5.93
71630;BMP280;59479;51.902;8.212;2023-11-22T11:23:51;102385.34;;;5.97
71630;BMP280;59479;51.902;8.212;2023-11-22T11:26:19;102387.06;;;5.98
71630;BMP280;59479;51.902;8.212;2023-11-22T11:28:49;102384.63;;;6.00
71630;BMP280;59479;51.902;8.212;2023-11-22T11:31:16;102381.41;;;6.02
71630;BMP280;59479;51.902;8.212;2023-11-22T11:38:47;102377.28;;;6.03
71630;BMP280;59479;51.902;8.212;2023-11-22T11:41:14;102363.66;;;5.96
71630;BMP280;59479;51.902;8.212;2023-11-22T11:43:43;102366.38;;;6.01
71630;BMP280;59479;51.902;8.212;2023-11-22T11:46:10;102368.44;;;6.09
71630;BMP280;59479;51.902;8.212;2023-11-22T11:48:36;102359.28;;;6.10
71630;BMP280;59479;51.902;8.212;2023-11-22T11:51:01;102345.91;;;6.08
71630;BMP280;59479;51.902;8.212;2023-11-22T11:53:27;102346.81;;;6.10
71630;BMP280;59479;51.902;8.212;2023-11-22T11:55:53;102332.06;;;6.14
71630;BMP280;59479;51.902;8.212;2023-11-22T11:58:19;102327.91;;;6.15
71630;BMP280;59479;51.902;8.212;2023-11-22T12:00:45;102319.69;;;6.17
71630;BMP280;59479;51.902;8.212;2023-11-22T12:03:10;102311.66;;;6.24
71630;BMP280;59479;51.902;8.212;2023-11-22T12:05:36;102300.38;;;6.32
71630;BMP280;59479;51.902;8.212;2023-11-22T12:08:02;102277.75;;;6.29
71630;BMP280;59479;51.902;8.212;2023-11-22T12:10:28;102265.09;;;6.25
71630;BMP280;59479;51.902;8.212;2023-11-22T12:12:54;102246.75;;;6.24
71630;BMP280;59479;51.902;8.212;2023-11-22T12:15:20;102244.91;;;6.20
71630;BMP280;59479;51.902;8.212;2023-11-22T12:17:48;102245.13;;;6.25
71630;BMP280;59479;51.902;8.212;2023-11-22T12:20:15;102248.31;;;6.22
71630;BMP280;59479;51.902;8.212;2023-11-22T12:22:42;102241.50;;;6.18
71630;BMP280;59479;51.902;8.212;2023-11-22T12:25:10;102232.28;;;6.17
71630;BMP280;59479;51.902;8.212;2023-11-22T12:27:41;102225.16;;;6.25
71630;BMP280;59479;51.902;8.212;2023-11-22T12:30:07;102227.88;;;6.30
71630;BMP280;59479;51.902;8.212;2023-11-22T12:32:33;102223.75;;;6.31
71630;BMP280;59479;51.902;8.212;2023-11-22T12:34:58;102230.44;;;6.32
71630;BMP280;59479;51.902;8.212;2023-11-22T12:37:24;102221.31;;;6.32
71630;BMP280;59479;51.902;8.212;2023-11-22T12:39:50;102213.22;;;6.38
71630;BMP280;59479;51.902;8.212;2023-11-22T12:42:18;102213.41;;;6.42
71630;BMP280;59479;51.902;8.212;2023-11-22T12:44:52;102204.41;;;6.46
71630;BMP280;59479;51.902;8.212;2023-11-22T12:47:33;102189.59;;;6.50
71630;BMP280;59479;51.902;8.212;2023-11-22T12:50:02;102180.28;;;6.46
71630;BMP280;59479;51.902;8.212;2023-11-22T12:52:32;102191.59;;;6.38
71630;BMP280;59479;51.902;8.212;2023-11-22T12:54:58;102185.75;;;6.38
71630;BMP280;59479;51.902;8.212;2023-11-22T12:57:24;102196.53;;;6.37
71630;BMP280;59479;51.902;8.212;2023-11-22T12:59:49;102199.28;;;6.43
71630;BMP280;59479;51.902;8.212;2023-11-22T13:02:15;102194.66;;;6.52
71630;BMP280;59479;51.902;8.212;2023-11-22T13:04:42;102198.88;;;6.53
71630;BMP280;59479;51.902;8.212;2023-11-22T13:07:07;102201.59;;;6.38
71630;BMP280;59479;51.902;8.212;2023-11-22T13:09:32;102202.69;;;6.45
71630;BMP280;59479;51.902;8.212;2023-11-22T13:12:00;102210.31;;;6.48
71630;BMP280;59479;51.902;8.212;2023-11-22T13:14:26;102214.41;;;6.46
71630;BMP280;59479;51.902;8.212;2023-11-22T13:16:57;102214.50;;;6.49
71630;BMP280;59479;51.902;8.212;2023-11-22T13:19:22;102202.63;;;6.43
71630;BMP280;59479;51.902;8.212;2023-11-22T13:21:47;102200.34;;;6.48
71630;BMP280;59479;51.902;8.212;2023-11-22T13:24:13;102201.38;;;6.53
71630;BMP280;59479;51.902;8.212;2023-11-22T13:26:41;102211.59;;;6.59
71630;BMP280;59479;51.902;8.212;2023-11-22T13:29:07;102222.69;;;6.65
71630;BMP280;59479;51.902;8.212;2023-11-22T13:31:32;102219.09;;;6.59
71630;BMP280;59479;51.902;8.212;2023-11-22T13:33:58;102229.75;;;6.55
71630;BMP280;59479;51.902;8.212;2023-11-22T13:36:23;102229.75;;;6.55
71630;BMP280;59479;51.902;8.212;2023-11-22T13:38:48;102219.69;;;6.53
71630;BMP280;59479;51.902;8.212;2023-11-22T13:41:14;102222.31;;;6.56
71630;BMP280;59479;51.902;8.212;2023-11-22T13:43:39;102215.00;;;6.61
71630;BMP280;59479;51.902;8.212;2023-11-22T13:46:05;102210.88;;;6.61
71630;BMP280;59479;51.902;8.212;2023-11-22T13:48:30;102210.06;;;6.62
71630;BMP280;59479;51.902;8.212;2023-11-22T13:50:57;102212.41;;;6.58
71630;BMP280;59479;51.902;8.212;2023-11-22T13:53:25;102206.66;;;6.60
71630;BMP280;59479;51.902;8.212;2023-11-22T13:55:50;102199.53;;;6.69
71630;BMP280;59479;51.902;8.212;2023-11-22T13:58:17;102203.66;;;6.68
71630;BMP280;59479;51.902;8.212;2023-11-22T14:00:42;102201.50;;;6.76
71630;BMP280;59479;51.902;8.212;2023-11-22T14:03:08;102208.25;;;6.78
71630;BMP280;59479;51.902;8.212;2023-11-22T14:05:37;102225.03;;;6.81
71630;BMP280;59479;51.902;8.212;2023-11-22T14:08:04;102229.09;;;6.79
71630;BMP280;59479;51.902;8.212;2023-11-22T14:10:29;102236.66;;;6.80
71630;BMP280;59479;51.902;8.212;2023-11-22T14:12:55;102235.13;;;6.84
71630;BMP280;59479;51.902;8.212;2023-11-22T14:15:25;102242.03;;;6.89
71630;BMP280;59479;51.902;8.212;2023-11-22T14:17:50;102231.28;;;6.92
71630;BMP280;59479;51.902;8.212;2023-11-22T14:20:17;102227.81;;;6.88
71630;BMP280;59479;51.902;8.212;2023-11-22T14:22:43;102219.53;;;6.89
71630;BMP280;59479;51.902;8.212;2023-11-22T14:25:11;102216.09;;;6.87
71630;BMP280;59479;51.902;8.212;2023-11-22T14:27:42;102224.59;;;6.91
71630;BMP280;59479;51.902;8.212;2023-11-22T14:30:08;102223.44;;;6.83
71630;BMP280;59479;51.902;8.212;2023-11-22T14:32:35;102233.59;;;6.87
71630;BMP280;59479;51.902;8.212;2023-11-22T14:35:04;102236.34;;;6.93
71630;BMP280;59479;51.902;8.212;2023-11-22T14:37:30;102234.63;;;6.92
71630;BMP280;59479;51.902;8.212;2023-11-22T14:40:02;102226.47;;;6.96
71630;BMP280;59479;51.902;8.212;2023-11-22T14:42:30;102217.19;;;6.94
71630;BMP280;59479;51.902;8.212;2023-11-22T14:44:57;102213.16;;;6.97
71630;BMP280;59479;51.902;8.212;2023-11-22T14:47:22;102203.06;;;6.94
71630;BMP280;59479;51.902;8.212;2023-11-22T14:49:52;102201.22;;;6.90
71630;BMP280;59479;51.902;8.212;2023-11-22T14:52:19;102189.75;;;6.95
71630;BMP280;59479;51.902;8.212;2023-11-22T14:54:46;102204.75;;;6.95
71630;BMP280;59479;51.902;8.212;2023-11-22T14:57:12;102184.63;;;6.92
71630;BMP280;59479;51.902;8.212;2023-11-22T14:59:40;102186.22;;;6.90